地図

経路データ

SID SEASON NUMBER BASIN SUBBASIN NAME ISO_TIME NATURE LAT LON WMO_WIND WMO_PRES WMO_AGENCY TRACK_TYPE DIST2LAND LANDFALL IFLAG USA_AGENCY USA_ATCF_ID USA_LAT USA_LON USA_RECORD USA_STATUS USA_WIND USA_PRES USA_SSHS USA_R34_NE USA_R34_SE USA_R34_SW USA_R34_NW USA_R50_NE USA_R50_SE USA_R50_SW USA_R50_NW USA_R64_NE USA_R64_SE USA_R64_SW USA_R64_NW USA_POCI USA_ROCI USA_RMW USA_EYE TOKYO_LAT TOKYO_LON TOKYO_GRADE TOKYO_WIND TOKYO_PRES TOKYO_R50_DIR TOKYO_R50_LONG TOKYO_R50_SHORT TOKYO_R30_DIR TOKYO_R30_LONG TOKYO_R30_SHORT TOKYO_LAND CMA_LAT CMA_LON CMA_CAT CMA_WIND CMA_PRES HKO_LAT HKO_LON HKO_CAT HKO_WIND HKO_PRES NEWDELHI_LAT NEWDELHI_LON NEWDELHI_GRADE NEWDELHI_WIND NEWDELHI_PRES NEWDELHI_CI NEWDELHI_DP NEWDELHI_POCI REUNION_LAT REUNION_LON REUNION_TYPE REUNION_WIND REUNION_PRES REUNION_TNUM REUNION_CI REUNION_RMW REUNION_R34_NE REUNION_R34_SE REUNION_R34_SW REUNION_R34_NW REUNION_R50_NE REUNION_R50_SE REUNION_R50_SW REUNION_R50_NW REUNION_R64_NE REUNION_R64_SE REUNION_R64_SW REUNION_R64_NW BOM_LAT BOM_LON BOM_TYPE BOM_WIND BOM_PRES BOM_TNUM BOM_CI BOM_RMW BOM_R34_NE BOM_R34_SE BOM_R34_SW BOM_R34_NW BOM_R50_NE BOM_R50_SE BOM_R50_SW BOM_R50_NW BOM_R64_NE BOM_R64_SE BOM_R64_SW BOM_R64_NW BOM_ROCI BOM_POCI BOM_EYE BOM_POS_METHOD BOM_PRES_METHOD NADI_LAT NADI_LON NADI_CAT NADI_WIND NADI_PRES WELLINGTON_LAT WELLINGTON_LON WELLINGTON_WIND WELLINGTON_PRES DS824_LAT DS824_LON DS824_STAGE DS824_WIND DS824_PRES TD9636_LAT TD9636_LON TD9636_STAGE TD9636_WIND TD9636_PRES TD9635_LAT TD9635_LON TD9635_WIND TD9635_PRES TD9635_ROCI NEUMANN_LAT NEUMANN_LON NEUMANN_CLASS NEUMANN_WIND NEUMANN_PRES MLC_LAT MLC_LON MLC_CLASS MLC_WIND MLC_PRES USA_GUST BOM_GUST BOM_GUST_PER REUNION_GUST REUNION_GUST_PER USA_SEAHGT USA_SEARAD_NE USA_SEARAD_SE USA_SEARAD_SW USA_SEARAD_NW STORM_SPEED STORM_DIR
1940005S18120 1940 3 SI WA NOT_NAMED 1940-01-05 01:00:00 NR -18.0000 120.000 main 191 191 __________O___ -1 -18.0000 120.000 7 5 292
1940005S18120 1940 3 SI WA NOT_NAMED 1940-01-05 03:00:00 NR -17.9351 119.830 main 215 215 __________P___ -1 -17.9351 119.830 7 5 291
1940005S18120 1940 3 SI WA NOT_NAMED 1940-01-05 06:00:00 NR -17.8432 119.576 main 239 239 __________P___ -1 -17.8432 119.576 7 5 289
1940005S18120 1940 3 SI WA NOT_NAMED 1940-01-05 09:00:00 NR -17.7657 119.326 main 251 251 __________P___ -1 -17.7657 119.326 7 5 286
1940005S18120 1940 3 SI WA NOT_NAMED 1940-01-05 12:00:00 NR -17.7114 119.080 main 267 267 __________P___ -1 -17.7114 119.080 7 5 282
1940005S18120 1940 3 SI WA NOT_NAMED 1940-01-05 13:00:00 NR -17.7000 119.000 main 268 268 __________O___ -1 -17.7000 119.000 7 5 276
1940005S18120 1940 3 SI WA NOT_NAMED 1940-01-05 15:00:00 NR -17.6894 118.841 main 270 270 __________P___ -1 -17.6894 118.841 7 5 268
1940005S18120 1940 3 SI WA NOT_NAMED 1940-01-05 18:00:00 NR -17.7108 118.603 main 273 267 __________P___ -1 -17.7108 118.603 7 5 258
1940005S18120 1940 3 SI WA NOT_NAMED 1940-01-05 21:00:00 NR -17.7881 118.356 main 267 263 __________P___ -1 -17.7881 118.356 7 5 245
1940005S18120 1940 3 SI WA NOT_NAMED 1940-01-06 00:00:00 NR -17.9340 118.093 main 267 257 __________P___ -1 -17.9340 118.093 7 6 238
1940005S18120 1940 3 SI WA NOT_NAMED 1940-01-06 01:00:00 NR -18.0000 118.000 main 261 248 __________O___ -1 -18.0000 118.000 7 7 231
1940005S18120 1940 3 SI WA NOT_NAMED 1940-01-06 03:00:00 NR -18.1622 117.798 main 248 221 __________P___ -1 -18.1622 117.798 7 8 227
1940005S18120 1940 3 SI WA NOT_NAMED 1940-01-06 06:00:00 NR -18.4687 117.476 main 221 202 __________P___ -1 -18.4687 117.476 7 9 223
1940005S18120 1940 3 SI WA NOT_NAMED 1940-01-06 09:00:00 NR -18.8203 117.142 main 203 156 __________P___ -1 -18.8203 117.142 7 10 222
1940005S18120 1940 3 SI WA NOT_NAMED 1940-01-06 12:00:00 NR -19.1827 116.809 main 156 145 __________P___ -1 -19.1827 116.809 7 10 221
1940005S18120 1940 3 SI WA NOT_NAMED 1940-01-06 13:00:00 NR -19.3000 116.700 main 145 124 __________O___ -1 -19.3000 116.700 7 9 221
1940005S18120 1940 3 SI WA NOT_NAMED 1940-01-06 15:00:00 NR -19.5186 116.497 main 124 98 __________P___ -1 -19.5186 116.497 7 9 221
1940005S18120 1940 3 SI WA NOT_NAMED 1940-01-06 18:00:00 NR -19.8407 116.198 main 103 91 __________P___ -1 -19.8407 116.198 7 8 222
1940005S18120 1940 3 SI WA NOT_NAMED 1940-01-06 21:00:00 NR -20.1446 115.902 main 94 76 __________P___ -1 -20.1446 115.902 7 8 224
1940005S18120 1940 3 SI WA NOT_NAMED 1940-01-07 00:00:00 NR -20.4179 115.602 main 83 73 __________P___ -1 -20.4179 115.602 7 8 227
1940005S18120 1940 3 SI WA NOT_NAMED 1940-01-07 01:00:00 NR -20.5000 115.500 main 78 76 __________O___ -1 -20.5000 115.500 7 7 233
1940005S18120 1940 3 SI WA NOT_NAMED 1940-01-07 03:00:00 NR -20.6425 115.286 main 83 76 __________P___ -1 -20.6425 115.286 7 7 237
1940005S18120 1940 3 SI WA NOT_NAMED 1940-01-07 06:00:00 NR -20.8248 114.959 main 91 80 __________P___ -1 -20.8248 114.959 7 7 241
1940005S18120 1940 3 SI WA NOT_NAMED 1940-01-07 09:00:00 NR -20.9858 114.630 main 84 78 __________P___ -1 -20.9858 114.630 7 7 242
1940005S18120 1940 3 SI WA NOT_NAMED 1940-01-07 12:00:00 NR -21.1444 114.306 main 84 73 __________P___ -1 -21.1444 114.306 7 7 242
1940005S18120 1940 3 SI WA NOT_NAMED 1940-01-07 13:00:00 NR -21.2000 114.200 main 78 67 __________O___ -1 -21.2000 114.200 7 7 239
1940005S18120 1940 3 SI WA NOT_NAMED 1940-01-07 15:00:00 NR -21.3182 113.992 main 67 49 __________P___ -1 -21.3182 113.992 7 7 237
1940005S18120 1940 3 SI WA NOT_NAMED 1940-01-07 18:00:00 NR -21.5105 113.688 main 54 53 __________P___ -1 -21.5105 113.688 7 7 235
1940005S18120 1940 3 SI WA NOT_NAMED 1940-01-07 21:00:00 NR -21.7159 113.391 main 65 65 __________P___ -1 -21.7159 113.391 7 7 233
1940005S18120 1940 3 SI WA NOT_NAMED 1940-01-08 00:00:00 NR -21.9285 113.098 main 84 79 __________P___ -1 -21.9285 113.098 7 7 232
1940005S18120 1940 3 SI WA NOT_NAMED 1940-01-08 01:00:00 NR -22.0000 113.000 main 88 __________O___ -1 -22.0000 113.000 7 7 230

IBTrACS Databaseについて

本データベースは、米国NOAAが公開する1842年以降の世界の熱帯低気圧のベストトラックデータアーカイブInternational Best Track Archive for Climate Stewardship (IBTrACS)を、ウェブで閲覧しやすい形式に変換したものです。

最終更新日:2021-10-21